Terminal Aerodrome Forecast
Issued by NWS

Home | Current Version | Previous Version | Graphics & Text | Print | Product List | Glossary On
Versions: 1 2 3 4 5 6 7 8 9 10 11 12 13 14 15
000
FTUS43 KMPX 211100
TAFRNH
TAF
KRNH 211131Z 2112/2212 22004KT P6SM BKN010 OVC100
      TEMPO 2112/2114 27008KT 4SM -SHRA BR SCT010 OVC050
     FM211400 32012KT P6SM SCT015 SCT100
     FM211530 32016G26KT P6SM SKC
     FM220200 33008KT P6SM SKC
     FM220700 32004KT P6SM SKC=

USA.gov is the U.S. government's official web portal to all federal, state and local government web resources and services.